sensor_id;sensor_type;location;lat;lon;timestamp;P1;durP1;ratioP1;P2;durP2;ratioP2
19782;SDS011;10051;40.294;-3.754;2023-07-13T00:01:31;3.22;;;1.15;;
19782;SDS011;10051;40.294;-3.754;2023-07-13T00:03:57;3.03;;;1.10;;
19782;SDS011;10051;40.294;-3.754;2023-07-13T00:06:23;2.60;;;1.10;;
19782;SDS011;10051;40.294;-3.754;2023-07-13T00:08:48;3.88;;;1.00;;
19782;SDS011;10051;40.294;-3.754;2023-07-13T00:11:15;4.70;;;1.08;;
19782;SDS011;10051;40.294;-3.754;2023-07-13T00:13:42;3.67;;;1.10;;
19782;SDS011;10051;40.294;-3.754;2023-07-13T00:16:09;6.22;;;1.20;;
19782;SDS011;10051;40.294;-3.754;2023-07-13T00:18:36;4.88;;;1.10;;
19782;SDS011;10051;40.294;-3.754;2023-07-13T00:21:03;4.03;;;1.10;;
19782;SDS011;10051;40.294;-3.754;2023-07-13T00:23:35;1.73;;;1.10;;
19782;SDS011;10051;40.294;-3.754;2023-07-13T00:26:03;1.83;;;1.08;;
19782;SDS011;10051;40.294;-3.754;2023-07-13T00:28:29;1.75;;;1.00;;
19782;SDS011;10051;40.294;-3.754;2023-07-13T00:30:55;1.98;;;1.05;;
19782;SDS011;10051;40.294;-3.754;2023-07-13T00:33:20;1.85;;;1.13;;
19782;SDS011;10051;40.294;-3.754;2023-07-13T00:35:48;2.58;;;1.00;;
19782;SDS011;10051;40.294;-3.754;2023-07-13T00:38:14;2.28;;;1.10;;
19782;SDS011;10051;40.294;-3.754;2023-07-13T00:40:39;2.60;;;1.10;;
19782;SDS011;10051;40.294;-3.754;2023-07-13T00:43:18;1.67;;;1.00;;
19782;SDS011;10051;40.294;-3.754;2023-07-13T00:48:13;4.00;;;0.98;;
19782;SDS011;10051;40.294;-3.754;2023-07-13T00:50:47;3.17;;;1.08;;
19782;SDS011;10051;40.294;-3.754;2023-07-13T00:53:16;3.97;;;1.25;;
19782;SDS011;10051;40.294;-3.754;2023-07-13T00:55:43;5.07;;;1.00;;
19782;SDS011;10051;40.294;-3.754;2023-07-13T00:58:10;3.85;;;1.10;;
19782;SDS011;10051;40.294;-3.754;2023-07-13T01:00:35;2.75;;;1.10;;
19782;SDS011;10051;40.294;-3.754;2023-07-13T01:03:03;3.53;;;1.20;;
19782;SDS011;10051;40.294;-3.754;2023-07-13T01:05:29;4.93;;;1.20;;
19782;SDS011;10051;40.294;-3.754;2023-07-13T01:07:57;1.80;;;1.15;;
19782;SDS011;10051;40.294;-3.754;2023-07-13T01:10:24;2.88;;;0.95;;
19782;SDS011;10051;40.294;-3.754;2023-07-13T01:12:51;3.17;;;1.13;;
19782;SDS011;10051;40.294;-3.754;2023-07-13T01:15:37;3.17;;;1.15;;
19782;SDS011;10051;40.294;-3.754;2023-07-13T01:18:05;1.15;;;0.93;;
19782;SDS011;10051;40.294;-3.754;2023-07-13T01:23:28;7.00;;;1.20;;
19782;SDS011;10051;40.294;-3.754;2023-07-13T01:25:55;5.45;;;1.30;;
19782;SDS011;10051;40.294;-3.754;2023-07-13T01:28:22;2.08;;;1.02;;
19782;SDS011;10051;40.294;-3.754;2023-07-13T01:30:52;1.60;;;1.00;;
19782;SDS011;10051;40.294;-3.754;2023-07-13T01:33:19;3.83;;;1.00;;
19782;SDS011;10051;40.294;-3.754;2023-07-13T01:35:45;2.40;;;1.10;;
19782;SDS011;10051;40.294;-3.754;2023-07-13T01:38:16;3.17;;;1.20;;
19782;SDS011;10051;40.294;-3.754;2023-07-13T01:40:43;1.30;;;1.00;;
19782;SDS011;10051;40.294;-3.754;2023-07-13T01:43:09;1.83;;;1.15;;
19782;SDS011;10051;40.294;-3.754;2023-07-13T01:45:38;4.18;;;0.98;;
19782;SDS011;10051;40.294;-3.754;2023-07-13T01:48:04;4.03;;;1.20;;
19782;SDS011;10051;40.294;-3.754;2023-07-13T01:50:31;4.13;;;1.10;;
19782;SDS011;10051;40.294;-3.754;2023-07-13T01:52:57;2.50;;;1.05;;
19782;SDS011;10051;40.294;-3.754;2023-07-13T01:55:23;2.00;;;1.15;;
19782;SDS011;10051;40.294;-3.754;2023-07-13T01:57:49;1.88;;;1.20;;
19782;SDS011;10051;40.294;-3.754;2023-07-13T02:00:14;3.08;;;1.10;;
19782;SDS011;10051;40.294;-3.754;2023-07-13T02:02:40;5.38;;;1.30;;
19782;SDS011;10051;40.294;-3.754;2023-07-13T02:05:06;1.85;;;1.10;;
19782;SDS011;10051;40.294;-3.754;2023-07-13T02:07:32;4.72;;;1.10;;
19782;SDS011;10051;40.294;-3.754;2023-07-13T02:09:58;4.93;;;1.20;;
19782;SDS011;10051;40.294;-3.754;2023-07-13T02:12:23;2.10;;;1.20;;
19782;SDS011;10051;40.294;-3.754;2023-07-13T02:14:49;4.50;;;1.10;;
19782;SDS011;10051;40.294;-3.754;2023-07-13T02:17:15;3.17;;;1.10;;
19782;SDS011;10051;40.294;-3.754;2023-07-13T02:19:40;3.92;;;1.20;;
19782;SDS011;10051;40.294;-3.754;2023-07-13T02:22:06;2.35;;;1.23;;
19782;SDS011;10051;40.294;-3.754;2023-07-13T02:24:31;1.92;;;1.23;;
19782;SDS011;10051;40.294;-3.754;2023-07-13T02:26:57;1.67;;;1.15;;
19782;SDS011;10051;40.294;-3.754;2023-07-13T02:29:22;2.50;;;1.20;;
19782;SDS011;10051;40.294;-3.754;2023-07-13T02:31:48;2.65;;;1.27;;
19782;SDS011;10051;40.294;-3.754;2023-07-13T02:34:14;1.75;;;1.20;;
19782;SDS011;10051;40.294;-3.754;2023-07-13T02:36:39;2.75;;;1.20;;
19782;SDS011;10051;40.294;-3.754;2023-07-13T02:39:05;3.17;;;1.27;;
19782;SDS011;10051;40.294;-3.754;2023-07-13T02:41:31;2.42;;;1.30;;
19782;SDS011;10051;40.294;-3.754;2023-07-13T02:43:57;3.20;;;1.20;;
19782;SDS011;10051;40.294;-3.754;2023-07-13T02:46:35;3.50;;;1.30;;
19782;SDS011;10051;40.294;-3.754;2023-07-13T02:49:02;1.90;;;1.35;;
19782;SDS011;10051;40.294;-3.754;2023-07-13T02:51:29;2.10;;;1.20;;
19782;SDS011;10051;40.294;-3.754;2023-07-13T02:53:55;2.15;;;1.20;;
19782;SDS011;10051;40.294;-3.754;2023-07-13T02:56:22;2.50;;;1.10;;
19782;SDS011;10051;40.294;-3.754;2023-07-13T02:58:49;2.20;;;1.10;;
19782;SDS011;10051;40.294;-3.754;2023-07-13T03:01:15;3.67;;;1.20;;
19782;SDS011;10051;40.294;-3.754;2023-07-13T03:03:44;1.98;;;1.10;;
19782;SDS011;10051;40.294;-3.754;2023-07-13T03:06:14;2.45;;;1.20;;
19782;SDS011;10051;40.294;-3.754;2023-07-13T03:08:41;3.60;;;1.30;;
19782;SDS011;10051;40.294;-3.754;2023-07-13T03:11:08;3.40;;;1.40;;
19782;SDS011;10051;40.294;-3.754;2023-07-13T03:13:36;3.75;;;1.40;;
19782;SDS011;10051;40.294;-3.754;2023-07-13T03:16:02;4.55;;;1.20;;
19782;SDS011;10051;40.294;-3.754;2023-07-13T03:18:28;2.60;;;1.20;;
19782;SDS011;10051;40.294;-3.754;2023-07-13T03:20:54;3.72;;;1.27;;
19782;SDS011;10051;40.294;-3.754;2023-07-13T03:23:21;1.88;;;1.10;;
19782;SDS011;10051;40.294;-3.754;2023-07-13T03:25:47;3.35;;;1.30;;
19782;SDS011;10051;40.294;-3.754;2023-07-13T03:28:13;4.70;;;1.30;;
19782;SDS011;10051;40.294;-3.754;2023-07-13T03:30:39;1.88;;;1.25;;
19782;SDS011;10051;40.294;-3.754;2023-07-13T03:33:05;3.13;;;1.40;;
19782;SDS011;10051;40.294;-3.754;2023-07-13T03:35:31;3.05;;;1.27;;
19782;SDS011;10051;40.294;-3.754;2023-07-13T03:37:58;2.25;;;1.30;;
19782;SDS011;10051;40.294;-3.754;2023-07-13T03:40:24;2.75;;;1.30;;
19782;SDS011;10051;40.294;-3.754;2023-07-13T03:42:51;3.22;;;1.40;;
19782;SDS011;10051;40.294;-3.754;2023-07-13T03:45:17;3.78;;;1.58;;
19782;SDS011;10051;40.294;-3.754;2023-07-13T03:47:43;2.95;;;1.50;;
19782;SDS011;10051;40.294;-3.754;2023-07-13T03:50:09;4.25;;;1.50;;
19782;SDS011;10051;40.294;-3.754;2023-07-13T03:52:34;3.17;;;1.25;;
19782;SDS011;10051;40.294;-3.754;2023-07-13T03:55:00;8.13;;;1.70;;
19782;SDS011;10051;40.294;-3.754;2023-07-13T03:57:26;3.10;;;1.50;;
19782;SDS011;10051;40.294;-3.754;2023-07-13T03:59:51;7.10;;;1.63;;
19782;SDS011;10051;40.294;-3.754;2023-07-13T04:02:17;3.15;;;1.42;;
19782;SDS011;10051;40.294;-3.754;2023-07-13T04:04:43;5.55;;;1.80;;
19782;SDS011;10051;40.294;-3.754;2023-07-13T04:07:09;4.18;;;1.90;;
19782;SDS011;10051;40.294;-3.754;2023-07-13T04:09:35;5.07;;;1.73;;
19782;SDS011;10051;40.294;-3.754;2023-07-13T04:12:01;5.43;;;1.70;;
19782;SDS011;10051;40.294;-3.754;2023-07-13T04:14:27;4.82;;;1.90;;
19782;SDS011;10051;40.294;-3.754;2023-07-13T04:16:53;7.82;;;1.70;;
19782;SDS011;10051;40.294;-3.754;2023-07-13T04:19:20;6.57;;;1.73;;
19782;SDS011;10051;40.294;-3.754;2023-07-13T04:21:45;6.50;;;1.77;;
19782;SDS011;10051;40.294;-3.754;2023-07-13T04:24:11;5.18;;;1.55;;
19782;SDS011;10051;40.294;-3.754;2023-07-13T04:26:37;4.65;;;1.92;;
19782;SDS011;10051;40.294;-3.754;2023-07-13T04:29:03;4.43;;;2.00;;
19782;SDS011;10051;40.294;-3.754;2023-07-13T04:31:29;4.93;;;1.80;;
19782;SDS011;10051;40.294;-3.754;2023-07-13T04:33:55;4.88;;;1.77;;
19782;SDS011;10051;40.294;-3.754;2023-07-13T04:36:21;7.50;;;2.10;;
19782;SDS011;10051;40.294;-3.754;2023-07-13T04:38:47;8.45;;;2.00;;
19782;SDS011;10051;40.294;-3.754;2023-07-13T04:41:14;6.53;;;1.95;;
19782;SDS011;10051;40.294;-3.754;2023-07-13T04:43:40;7.35;;;1.83;;
19782;SDS011;10051;40.294;-3.754;2023-07-13T04:46:07;6.28;;;1.90;;
19782;SDS011;10051;40.294;-3.754;2023-07-13T04:48:34;5.25;;;1.98;;
19782;SDS011;10051;40.294;-3.754;2023-07-13T04:51:00;6.10;;;2.20;;
19782;SDS011;10051;40.294;-3.754;2023-07-13T04:53:27;7.88;;;2.00;;
19782;SDS011;10051;40.294;-3.754;2023-07-13T04:55:53;8.32;;;2.55;;
19782;SDS011;10051;40.294;-3.754;2023-07-13T04:58:19;8.85;;;2.40;;
19782;SDS011;10051;40.294;-3.754;2023-07-13T05:00:46;8.05;;;2.40;;
19782;SDS011;10051;40.294;-3.754;2023-07-13T05:03:12;8.73;;;2.10;;
19782;SDS011;10051;40.294;-3.754;2023-07-13T05:05:38;9.70;;;2.35;;
19782;SDS011;10051;40.294;-3.754;2023-07-13T05:08:03;7.57;;;2.53;;
19782;SDS011;10051;40.294;-3.754;2023-07-13T05:10:29;4.85;;;2.10;;
19782;SDS011;10051;40.294;-3.754;2023-07-13T05:12:55;8.68;;;2.50;;
19782;SDS011;10051;40.294;-3.754;2023-07-13T05:15:21;6.43;;;2.38;;
19782;SDS011;10051;40.294;-3.754;2023-07-13T05:17:48;4.75;;;2.20;;
19782;SDS011;10051;40.294;-3.754;2023-07-13T05:20:14;12.02;;;2.50;;
19782;SDS011;10051;40.294;-3.754;2023-07-13T05:22:41;12.52;;;2.80;;
19782;SDS011;10051;40.294;-3.754;2023-07-13T05:25:07;8.35;;;2.45;;
19782;SDS011;10051;40.294;-3.754;2023-07-13T05:27:33;9.38;;;2.80;;
19782;SDS011;10051;40.294;-3.754;2023-07-13T05:29:59;11.23;;;2.92;;
19782;SDS011;10051;40.294;-3.754;2023-07-13T05:32:25;13.32;;;2.90;;
19782;SDS011;10051;40.294;-3.754;2023-07-13T05:34:54;8.02;;;2.40;;
19782;SDS011;10051;40.294;-3.754;2023-07-13T05:37:19;6.80;;;2.50;;
19782;SDS011;10051;40.294;-3.754;2023-07-13T05:39:45;6.05;;;2.53;;
19782;SDS011;10051;40.294;-3.754;2023-07-13T05:42:11;11.25;;;2.60;;
19782;SDS011;10051;40.294;-3.754;2023-07-13T05:44:36;7.25;;;2.50;;
19782;SDS011;10051;40.294;-3.754;2023-07-13T05:47:02;8.77;;;2.50;;
19782;SDS011;10051;40.294;-3.754;2023-07-13T05:49:29;6.95;;;2.50;;
19782;SDS011;10051;40.294;-3.754;2023-07-13T05:51:55;5.28;;;2.40;;
19782;SDS011;10051;40.294;-3.754;2023-07-13T05:54:21;5.20;;;2.50;;
19782;SDS011;10051;40.294;-3.754;2023-07-13T05:56:47;6.30;;;2.25;;
19782;SDS011;10051;40.294;-3.754;2023-07-13T05:59:12;7.95;;;2.50;;
19782;SDS011;10051;40.294;-3.754;2023-07-13T06:01:38;6.05;;;2.60;;
19782;SDS011;10051;40.294;-3.754;2023-07-13T06:04:04;7.28;;;2.45;;
19782;SDS011;10051;40.294;-3.754;2023-07-13T06:06:29;4.95;;;2.20;;
19782;SDS011;10051;40.294;-3.754;2023-07-13T06:08:55;10.75;;;2.67;;
19782;SDS011;10051;40.294;-3.754;2023-07-13T06:11:22;7.30;;;2.65;;
19782;SDS011;10051;40.294;-3.754;2023-07-13T06:13:49;9.18;;;2.80;;
19782;SDS011;10051;40.294;-3.754;2023-07-13T06:16:16;13.50;;;3.00;;
19782;SDS011;10051;40.294;-3.754;2023-07-13T06:18:41;8.60;;;2.90;;
19782;SDS011;10051;40.294;-3.754;2023-07-13T06:21:12;14.27;;;3.15;;
19782;SDS011;10051;40.294;-3.754;2023-07-13T06:23:42;9.02;;;2.78;;
19782;SDS011;10051;40.294;-3.754;2023-07-13T06:26:08;10.48;;;2.60;;
19782;SDS011;10051;40.294;-3.754;2023-07-13T06:28:34;11.10;;;2.90;;
19782;SDS011;10051;40.294;-3.754;2023-07-13T06:31:01;16.27;;;3.35;;
19782;SDS011;10051;40.294;-3.754;2023-07-13T06:33:29;12.52;;;2.78;;
19782;SDS011;10051;40.294;-3.754;2023-07-13T06:35:55;14.23;;;3.67;;
19782;SDS011;10051;40.294;-3.754;2023-07-13T06:38:21;8.32;;;2.90;;
19782;SDS011;10051;40.294;-3.754;2023-07-13T06:40:46;9.68;;;2.65;;
19782;SDS011;10051;40.294;-3.754;2023-07-13T06:43:12;13.90;;;2.97;;
19782;SDS011;10051;40.294;-3.754;2023-07-13T06:45:43;8.73;;;2.80;;
19782;SDS011;10051;40.294;-3.754;2023-07-13T06:48:15;8.77;;;2.60;;
19782;SDS011;10051;40.294;-3.754;2023-07-13T06:50:42;10.82;;;2.70;;
19782;SDS011;10051;40.294;-3.754;2023-07-13T06:53:08;11.25;;;2.70;;
19782;SDS011;10051;40.294;-3.754;2023-07-13T06:55:34;9.50;;;2.72;;
19782;SDS011;10051;40.294;-3.754;2023-07-13T06:58:00;7.50;;;2.60;;
19782;SDS011;10051;40.294;-3.754;2023-07-13T07:00:25;15.32;;;2.72;;
19782;SDS011;10051;40.294;-3.754;2023-07-13T07:02:51;13.50;;;3.08;;
19782;SDS011;10051;40.294;-3.754;2023-07-13T07:05:17;9.85;;;2.88;;
19782;SDS011;10051;40.294;-3.754;2023-07-13T07:07:42;9.80;;;2.70;;
19782;SDS011;10051;40.294;-3.754;2023-07-13T07:10:08;9.60;;;2.70;;
19782;SDS011;10051;40.294;-3.754;2023-07-13T07:12:34;5.53;;;2.70;;
19782;SDS011;10051;40.294;-3.754;2023-07-13T07:14:59;12.75;;;2.78;;
19782;SDS011;10051;40.294;-3.754;2023-07-13T07:17:25;10.10;;;2.72;;
19782;SDS011;10051;40.294;-3.754;2023-07-13T07:19:51;6.72;;;2.67;;
19782;SDS011;10051;40.294;-3.754;2023-07-13T07:22:19;10.65;;;2.58;;
19782;SDS011;10051;40.294;-3.754;2023-07-13T07:24:45;7.00;;;2.80;;
19782;SDS011;10051;40.294;-3.754;2023-07-13T07:27:11;8.43;;;2.63;;
19782;SDS011;10051;40.294;-3.754;2023-07-13T07:29:36;6.53;;;2.80;;
19782;SDS011;10051;40.294;-3.754;2023-07-13T07:32:02;9.27;;;3.90;;
19782;SDS011;10051;40.294;-3.754;2023-07-13T07:34:28;6.78;;;2.70;;
19782;SDS011;10051;40.294;-3.754;2023-07-13T07:36:54;6.32;;;3.03;;
19782;SDS011;10051;40.294;-3.754;2023-07-13T07:39:19;12.10;;;3.10;;
19782;SDS011;10051;40.294;-3.754;2023-07-13T07:41:45;16.48;;;3.35;;
19782;SDS011;10051;40.294;-3.754;2023-07-13T07:44:10;11.63;;;3.08;;
19782;SDS011;10051;40.294;-3.754;2023-07-13T07:46:36;11.95;;;3.10;;
19782;SDS011;10051;40.294;-3.754;2023-07-13T07:49:02;8.93;;;2.80;;
19782;SDS011;10051;40.294;-3.754;2023-07-13T07:51:27;10.80;;;2.90;;
19782;SDS011;10051;40.294;-3.754;2023-07-13T07:53:53;7.65;;;2.88;;
19782;SDS011;10051;40.294;-3.754;2023-07-13T07:56:19;13.48;;;2.85;;
19782;SDS011;10051;40.294;-3.754;2023-07-13T07:58:44;8.43;;;2.80;;
19782;SDS011;10051;40.294;-3.754;2023-07-13T08:01:10;10.07;;;3.03;;
19782;SDS011;10051;40.294;-3.754;2023-07-13T08:03:35;10.27;;;3.00;;
19782;SDS011;10051;40.294;-3.754;2023-07-13T08:06:01;7.47;;;2.65;;
19782;SDS011;10051;40.294;-3.754;2023-07-13T08:08:27;12.65;;;3.40;;
19782;SDS011;10051;40.294;-3.754;2023-07-13T08:10:53;11.20;;;2.58;;
19782;SDS011;10051;40.294;-3.754;2023-07-13T08:13:19;8.52;;;2.50;;
19782;SDS011;10051;40.294;-3.754;2023-07-13T08:15:45;7.72;;;2.88;;
19782;SDS011;10051;40.294;-3.754;2023-07-13T08:18:12;14.07;;;2.78;;
19782;SDS011;10051;40.294;-3.754;2023-07-13T08:20:40;15.48;;;3.00;;
19782;SDS011;10051;40.294;-3.754;2023-07-13T08:23:06;8.93;;;2.85;;
19782;SDS011;10051;40.294;-3.754;2023-07-13T08:25:34;6.90;;;2.50;;
19782;SDS011;10051;40.294;-3.754;2023-07-13T08:28:00;12.25;;;2.53;;
19782;SDS011;10051;40.294;-3.754;2023-07-13T08:30:26;8.70;;;2.90;;
19782;SDS011;10051;40.294;-3.754;2023-07-13T08:32:52;10.38;;;2.53;;
19782;SDS011;10051;40.294;-3.754;2023-07-13T08:35:18;9.43;;;2.90;;
19782;SDS011;10051;40.294;-3.754;2023-07-13T08:37:44;8.48;;;2.45;;
19782;SDS011;10051;40.294;-3.754;2023-07-13T08:40:12;8.75;;;2.45;;
19782;SDS011;10051;40.294;-3.754;2023-07-13T08:47:38;10.93;;;2.80;;
19782;SDS011;10051;40.294;-3.754;2023-07-13T08:50:12;6.90;;;2.30;;
19782;SDS011;10051;40.294;-3.754;2023-07-13T08:52:41;7.03;;;2.20;;
19782;SDS011;10051;40.294;-3.754;2023-07-13T08:55:20;8.02;;;2.22;;
19782;SDS011;10051;40.294;-3.754;2023-07-13T08:57:52;12.60;;;2.42;;
19782;SDS011;10051;40.294;-3.754;2023-07-13T09:00:26;6.78;;;2.20;;
19782;SDS011;10051;40.294;-3.754;2023-07-13T09:03:02;5.70;;;2.40;;
19782;SDS011;10051;40.294;-3.754;2023-07-13T09:05:34;9.05;;;2.08;;
19782;SDS011;10051;40.294;-3.754;2023-07-13T09:11:45;5.65;;;2.00;;
19782;SDS011;10051;40.294;-3.754;2023-07-13T09:16:28;7.95;;;2.10;;
19782;SDS011;10051;40.294;-3.754;2023-07-13T09:18:54;7.63;;;2.25;;
19782;SDS011;10051;40.294;-3.754;2023-07-13T09:21:25;5.88;;;1.98;;
19782;SDS011;10051;40.294;-3.754;2023-07-13T09:24:00;11.55;;;2.10;;
19782;SDS011;10051;40.294;-3.754;2023-07-13T09:26:46;5.68;;;2.20;;
19782;SDS011;10051;40.294;-3.754;2023-07-13T09:32:00;6.07;;;2.10;;
19782;SDS011;10051;40.294;-3.754;2023-07-13T09:34:28;7.90;;;2.28;;
19782;SDS011;10051;40.294;-3.754;2023-07-13T09:36:57;12.07;;;2.35;;
19782;SDS011;10051;40.294;-3.754;2023-07-13T09:39:25;6.95;;;2.20;;
19782;SDS011;10051;40.294;-3.754;2023-07-13T09:44:57;4.82;;;1.70;;
19782;SDS011;10051;40.294;-3.754;2023-07-13T09:47:32;4.40;;;1.50;;
19782;SDS011;10051;40.294;-3.754;2023-07-13T09:50:03;4.70;;;1.52;;
19782;SDS011;10051;40.294;-3.754;2023-07-13T09:52:45;5.40;;;1.70;;
19782;SDS011;10051;40.294;-3.754;2023-07-13T09:55:25;6.47;;;1.50;;
19782;SDS011;10051;40.294;-3.754;2023-07-13T09:57:51;4.20;;;1.60;;
19782;SDS011;10051;40.294;-3.754;2023-07-13T10:00:24;3.72;;;1.60;;
19782;SDS011;10051;40.294;-3.754;2023-07-13T10:03:05;7.15;;;1.60;;
19782;SDS011;10051;40.294;-3.754;2023-07-13T10:05:41;5.30;;;1.60;;
19782;SDS011;10051;40.294;-3.754;2023-07-13T10:08:23;5.32;;;1.77;;
19782;SDS011;10051;40.294;-3.754;2023-07-13T10:11:09;6.60;;;1.98;;
19782;SDS011;10051;40.294;-3.754;2023-07-13T10:13:53;5.82;;;1.98;;
19782;SDS011;10051;40.294;-3.754;2023-07-13T10:16:22;5.60;;;1.80;;
19782;SDS011;10051;40.294;-3.754;2023-07-13T10:18:54;5.65;;;1.70;;
19782;SDS011;10051;40.294;-3.754;2023-07-13T10:21:23;5.75;;;1.70;;
19782;SDS011;10051;40.294;-3.754;2023-07-13T10:23:54;8.02;;;1.58;;
19782;SDS011;10051;40.294;-3.754;2023-07-13T10:26:33;4.85;;;1.58;;
19782;SDS011;10051;40.294;-3.754;2023-07-13T10:29:04;2.85;;;1.70;;
19782;SDS011;10051;40.294;-3.754;2023-07-13T10:31:34;6.22;;;1.90;;
19782;SDS011;10051;40.294;-3.754;2023-07-13T10:34:03;4.63;;;1.70;;
19782;SDS011;10051;40.294;-3.754;2023-07-13T10:36:34;5.22;;;1.60;;
19782;SDS011;10051;40.294;-3.754;2023-07-13T10:39:09;4.38;;;1.65;;
19782;SDS011;10051;40.294;-3.754;2023-07-13T10:44:27;4.38;;;1.63;;
19782;SDS011;10051;40.294;-3.754;2023-07-13T10:46:55;3.80;;;1.77;;
19782;SDS011;10051;40.294;-3.754;2023-07-13T10:49:34;7.22;;;1.90;;
19782;SDS011;10051;40.294;-3.754;2023-07-13T10:52:02;4.80;;;1.73;;
19782;SDS011;10051;40.294;-3.754;2023-07-13T10:54:33;3.35;;;1.60;;
19782;SDS011;10051;40.294;-3.754;2023-07-13T10:57:14;4.40;;;1.60;;
19782;SDS011;10051;40.294;-3.754;2023-07-13T10:59:43;6.82;;;1.85;;
19782;SDS011;10051;40.294;-3.754;2023-07-13T11:02:29;8.40;;;1.73;;
19782;SDS011;10051;40.294;-3.754;2023-07-13T11:04:55;3.63;;;1.77;;
19782;SDS011;10051;40.294;-3.754;2023-07-13T11:07:28;5.20;;;1.63;;
19782;SDS011;10051;40.294;-3.754;2023-07-13T11:09:59;4.82;;;1.88;;
19782;SDS011;10051;40.294;-3.754;2023-07-13T11:12:48;4.78;;;1.58;;
19782;SDS011;10051;40.294;-3.754;2023-07-13T11:15:26;7.63;;;1.80;;
19782;SDS011;10051;40.294;-3.754;2023-07-13T11:17:55;3.53;;;1.90;;
19782;SDS011;10051;40.294;-3.754;2023-07-13T11:20:30;4.65;;;1.67;;
19782;SDS011;10051;40.294;-3.754;2023-07-13T11:25:38;4.93;;;1.50;;
19782;SDS011;10051;40.294;-3.754;2023-07-13T11:28:06;3.03;;;1.80;;
19782;SDS011;10051;40.294;-3.754;2023-07-13T11:30:35;3.00;;;1.80;;
19782;SDS011;10051;40.294;-3.754;2023-07-13T11:33:02;3.17;;;1.92;;
19782;SDS011;10051;40.294;-3.754;2023-07-13T11:35:34;3.63;;;1.80;;
19782;SDS011;10051;40.294;-3.754;2023-07-13T11:38:04;4.32;;;2.00;;
19782;SDS011;10051;40.294;-3.754;2023-07-13T11:40:40;5.18;;;1.80;;
19782;SDS011;10051;40.294;-3.754;2023-07-13T11:43:08;5.25;;;1.85;;
19782;SDS011;10051;40.294;-3.754;2023-07-13T11:45:37;5.70;;;1.77;;
19782;SDS011;10051;40.294;-3.754;2023-07-13T11:48:03;5.28;;;1.67;;
19782;SDS011;10051;40.294;-3.754;2023-07-13T11:50:29;3.25;;;1.67;;
19782;SDS011;10051;40.294;-3.754;2023-07-13T11:52:54;2.88;;;1.30;;
19782;SDS011;10051;40.294;-3.754;2023-07-13T11:55:21;2.63;;;1.52;;
19782;SDS011;10051;40.294;-3.754;2023-07-13T11:57:50;5.18;;;1.50;;
19782;SDS011;10051;40.294;-3.754;2023-07-13T12:00:21;5.15;;;1.45;;
19782;SDS011;10051;40.294;-3.754;2023-07-13T12:02:52;7.50;;;1.40;;
19782;SDS011;10051;40.294;-3.754;2023-07-13T12:05:21;2.70;;;1.40;;
19782;SDS011;10051;40.294;-3.754;2023-07-13T12:07:48;5.72;;;1.50;;
19782;SDS011;10051;40.294;-3.754;2023-07-13T12:12:52;4.95;;;1.50;;
19782;SDS011;10051;40.294;-3.754;2023-07-13T12:15:21;5.35;;;1.50;;
19782;SDS011;10051;40.294;-3.754;2023-07-13T12:17:47;4.60;;;1.30;;
19782;SDS011;10051;40.294;-3.754;2023-07-13T12:20:19;1.90;;;1.38;;
19782;SDS011;10051;40.294;-3.754;2023-07-13T12:22:49;2.00;;;1.30;;
19782;SDS011;10051;40.294;-3.754;2023-07-13T12:25:16;3.85;;;1.40;;
19782;SDS011;10051;40.294;-3.754;2023-07-13T12:27:46;1.88;;;1.20;;
19782;SDS011;10051;40.294;-3.754;2023-07-13T12:30:31;2.53;;;1.17;;
19782;SDS011;10051;40.294;-3.754;2023-07-13T12:33:08;2.88;;;1.40;;
19782;SDS011;10051;40.294;-3.754;2023-07-13T12:35:47;2.45;;;1.38;;
19782;SDS011;10051;40.294;-3.754;2023-07-13T12:38:15;1.70;;;1.15;;
19782;SDS011;10051;40.294;-3.754;2023-07-13T12:40:44;4.80;;;1.30;;
19782;SDS011;10051;40.294;-3.754;2023-07-13T12:43:13;2.05;;;1.42;;
19782;SDS011;10051;40.294;-3.754;2023-07-13T12:45:39;3.92;;;1.20;;
19782;SDS011;10051;40.294;-3.754;2023-07-13T12:48:37;4.43;;;1.20;;
19782;SDS011;10051;40.294;-3.754;2023-07-13T12:51:08;2.97;;;1.30;;
19782;SDS011;10051;40.294;-3.754;2023-07-13T12:53:38;4.22;;;1.90;;
19782;SDS011;10051;40.294;-3.754;2023-07-13T12:56:08;5.63;;;1.45;;
19782;SDS011;10051;40.294;-3.754;2023-07-13T12:58:47;1.73;;;1.17;;
19782;SDS011;10051;40.294;-3.754;2023-07-13T13:01:20;3.85;;;1.20;;
19782;SDS011;10051;40.294;-3.754;2023-07-13T13:03:48;1.92;;;1.33;;
19782;SDS011;10051;40.294;-3.754;2023-07-13T13:08:46;3.28;;;1.23;;
19782;SDS011;10051;40.294;-3.754;2023-07-13T13:11:17;5.57;;;1.20;;
19782;SDS011;10051;40.294;-3.754;2023-07-13T13:13:43;4.53;;;1.42;;
19782;SDS011;10051;40.294;-3.754;2023-07-13T13:16:11;1.20;;;1.00;;
19782;SDS011;10051;40.294;-3.754;2023-07-13T13:18:42;6.78;;;1.23;;
19782;SDS011;10051;40.294;-3.754;2023-07-13T13:21:09;1.92;;;1.17;;
19782;SDS011;10051;40.294;-3.754;2023-07-13T13:23:35;1.25;;;1.00;;
19782;SDS011;10051;40.294;-3.754;2023-07-13T13:26:00;3.05;;;1.50;;
19782;SDS011;10051;40.294;-3.754;2023-07-13T13:28:27;3.72;;;1.20;;
19782;SDS011;10051;40.294;-3.754;2023-07-13T13:30:53;1.88;;;1.30;;
19782;SDS011;10051;40.294;-3.754;2023-07-13T13:33:19;4.47;;;1.30;;
19782;SDS011;10051;40.294;-3.754;2023-07-13T13:35:46;4.00;;;1.30;;
19782;SDS011;10051;40.294;-3.754;2023-07-13T13:38:13;3.22;;;1.30;;
19782;SDS011;10051;40.294;-3.754;2023-07-13T13:40:41;1.60;;;1.10;;
19782;SDS011;10051;40.294;-3.754;2023-07-13T13:46:03;1.50;;;1.20;;
19782;SDS011;10051;40.294;-3.754;2023-07-13T13:48:44;1.73;;;1.10;;
19782;SDS011;10051;40.294;-3.754;2023-07-13T13:51:20;2.10;;;1.10;;
19782;SDS011;10051;40.294;-3.754;2023-07-13T13:53:48;3.67;;;1.30;;
19782;SDS011;10051;40.294;-3.754;2023-07-13T13:56:14;2.55;;;1.20;;
19782;SDS011;10051;40.294;-3.754;2023-07-13T13:58:42;1.85;;;1.05;;
19782;SDS011;10051;40.294;-3.754;2023-07-13T14:01:18;2.80;;;1.45;;
19782;SDS011;10051;40.294;-3.754;2023-07-13T14:03:45;2.22;;;1.30;;
19782;SDS011;10051;40.294;-3.754;2023-07-13T14:06:13;4.07;;;1.38;;
19782;SDS011;10051;40.294;-3.754;2023-07-13T14:08:41;2.00;;;1.23;;
19782;SDS011;10051;40.294;-3.754;2023-07-13T14:11:10;3.42;;;1.20;;
19782;SDS011;10051;40.294;-3.754;2023-07-13T14:13:39;1.75;;;1.10;;
19782;SDS011;10051;40.294;-3.754;2023-07-13T14:16:12;3.63;;;1.20;;
19782;SDS011;10051;40.294;-3.754;2023-07-13T14:18:43;2.92;;;1.30;;
19782;SDS011;10051;40.294;-3.754;2023-07-13T14:21:16;3.63;;;1.30;;
19782;SDS011;10051;40.294;-3.754;2023-07-13T14:23:45;1.88;;;1.10;;
19782;SDS011;10051;40.294;-3.754;2023-07-13T14:26:12;2.22;;;1.20;;
19782;SDS011;10051;40.294;-3.754;2023-07-13T14:28:43;4.00;;;1.33;;
19782;SDS011;10051;40.294;-3.754;2023-07-13T14:31:14;1.75;;;1.20;;
19782;SDS011;10051;40.294;-3.754;2023-07-13T14:33:41;6.70;;;1.20;;
19782;SDS011;10051;40.294;-3.754;2023-07-13T14:36:17;1.40;;;1.00;;
19782;SDS011;10051;40.294;-3.754;2023-07-13T14:38:54;3.33;;;1.20;;
19782;SDS011;10051;40.294;-3.754;2023-07-13T14:41:22;3.38;;;1.20;;
19782;SDS011;10051;40.294;-3.754;2023-07-13T14:43:48;1.85;;;1.15;;
19782;SDS011;10051;40.294;-3.754;2023-07-13T14:46:33;3.95;;;1.15;;
19782;SDS011;10051;40.294;-3.754;2023-07-13T14:49:13;3.40;;;1.30;;
19782;SDS011;10051;40.294;-3.754;2023-07-13T14:51:47;2.88;;;1.17;;
19782;SDS011;10051;40.294;-3.754;2023-07-13T14:54:13;2.65;;;1.30;;
19782;SDS011;10051;40.294;-3.754;2023-07-13T14:56:38;2.72;;;0.95;;
19782;SDS011;10051;40.294;-3.754;2023-07-13T14:59:04;1.05;;;0.90;;
19782;SDS011;10051;40.294;-3.754;2023-07-13T15:01:30;3.28;;;1.20;;
19782;SDS011;10051;40.294;-3.754;2023-07-13T15:03:56;2.30;;;1.17;;
19782;SDS011;10051;40.294;-3.754;2023-07-13T15:06:23;3.58;;;1.20;;
19782;SDS011;10051;40.294;-3.754;2023-07-13T15:08:49;2.33;;;1.25;;
19782;SDS011;10051;40.294;-3.754;2023-07-13T15:11:15;1.52;;;1.10;;
19782;SDS011;10051;40.294;-3.754;2023-07-13T15:13:41;2.13;;;1.00;;
19782;SDS011;10051;40.294;-3.754;2023-07-13T15:16:16;1.48;;;1.10;;